Flight Track Log - Related Links

Times and Time Zones

All times are in EDT time to prevent confusion due to time zone crossing. See the FIN666 flight status page for this flight to view local times or setup timezone preferences in your user account.

Time Position Orientation Groundspeed Altitude Reporting Facility
EDT Latitude Longitude Course Direction KTS MPH feet Rate Location/Type
Mon 07:30:00 AM 55.8272 13.0881 49° Northeast  Level Estimated
Mon 07:31:00 AM 55.8966 13.2332 49° Northeast  Level Estimated
Mon 07:32:00 AM 55.9649 13.3769 50° Northeast  Level Estimated
Mon 07:33:00 AM 56.0331 13.5211 50° Northeast  Level Estimated
Mon 07:34:00 AM 56.1010 13.6658 50° Northeast  Level Estimated
Mon 07:35:00 AM 56.1689 13.8110 50° Northeast  Level Estimated
Mon 07:36:00 AM 56.2365 13.9567 50° Northeast  Level Estimated
Mon 07:37:00 AM 56.3040 14.1029 50° Northeast  Level Estimated
Mon 07:38:00 AM 56.3713 14.2497 50° Northeast  Level Estimated
Mon 07:39:00 AM 56.4384 14.3970 50° Northeast  Level Estimated
Mon 07:40:00 AM 56.5054 14.5448 51° Northeast  Level Estimated
Mon 07:41:00 AM 56.5722 14.6931 51° Northeast  Level Estimated
Mon 07:42:00 AM 56.6388 14.8419 51° Northeast  Level Estimated
Mon 07:43:00 AM 56.7052 14.9913 51° Northeast  Level Estimated
Mon 07:44:00 AM 56.7714 15.1412 51° Northeast  Level Estimated
Mon 07:45:00 AM 56.8375 15.2916 51° Northeast  Level Estimated
Mon 07:46:00 AM 56.9034 15.4425 51° Northeast  Level Estimated
Mon 07:47:00 AM 56.9691 15.5940 51° Northeast  Level Estimated
Mon 07:48:00 AM 57.0346 15.7460 52° Northeast  Level Estimated
Mon 07:49:00 AM 57.0999 15.8986 52° Northeast  Level Estimated
Mon 07:50:00 AM 57.1651 16.0517 52° Northeast  Level Estimated
Mon 07:51:00 AM 57.2300 16.2053 52° Northeast  Level Estimated
Mon 07:52:00 AM 57.2948 16.3595 52° Northeast  Level Estimated
Mon 07:53:00 AM 57.3594 16.5142 52° Northeast  Level Estimated
Mon 07:54:00 AM 57.4238 16.6695 52° Northeast  Level Estimated
Mon 07:55:00 AM 57.4906 16.8317 52° Northeast  Level Estimated
Mon 07:56:00 AM 57.5572 16.9945 53° Northeast  Level Estimated
Mon 07:57:00 AM 57.6236 17.1579 53° Northeast  Level Estimated
Mon 07:58:00 AM 57.6898 17.3220 53° Northeast  Level Estimated
Mon 07:59:00 AM 57.7558 17.4866 53° Northeast  Level Estimated
Mon 08:00:00 AM 57.8216 17.6518 53° Northeast  Level Estimated
Mon 08:01:00 AM 57.8872 17.8176 53° Northeast  Level Estimated
Mon 08:02:00 AM 57.9525 17.9840 53° Northeast  Level Estimated
Mon 08:03:00 AM 58.0176 18.1510 54° Northeast  Level Estimated
Mon 08:04:00 AM 58.0826 18.3187 54° Northeast  Level Estimated
Mon 08:05:00 AM 58.1472 18.4869 54° Northeast  Level Estimated
Mon 08:06:00 AM 58.2117 18.6558 54° Northeast  Level Estimated
Mon 08:07:00 AM 58.2759 18.8252 54° Northeast  Level Estimated
Mon 08:08:00 AM 58.3400 18.9953 54° Northeast  Level Estimated
Mon 08:09:00 AM 58.4037 19.1660 54° Northeast  Level Estimated
Mon 08:10:00 AM 58.4673 19.3373 55° Northeast  Level Estimated
Mon 08:11:00 AM 58.5306 19.5093 55° Northeast  Level Estimated
Mon 08:12:00 AM 58.5937 19.6818 55° Northeast  Level Estimated
Mon 08:13:00 AM 58.6566 19.8550 55° Northeast  Level Estimated
Mon 08:14:00 AM 58.7192 20.0288 55° Northeast  Level Estimated
Mon 08:15:00 AM 58.7816 20.2033 55° Northeast  Level Estimated
Mon 08:16:00 AM 58.8438 20.3783 55° Northeast  Level Estimated
Mon 08:17:00 AM 58.9057 20.5540 56° Northeast  Level Estimated
Mon 08:18:00 AM 58.9674 20.7303 56° Northeast  Level Estimated
Mon 08:19:00 AM 59.0289 20.9073 56° Northeast  Level Estimated
Mon 08:20:00 AM 59.0901 21.0848 56° Northeast  Level Estimated
Mon 08:21:00 AM 59.1510 21.2631 56° Northeast  Level Estimated
Mon 08:22:00 AM 59.2117 21.4419 56° Northeast  Level Estimated
Mon 08:23:00 AM 59.2722 21.6214 57° Northeast  Level Estimated
Mon 08:24:00 AM 59.3324 21.8015 57° Northeast  Level Estimated
Mon 08:25:00 AM 59.3924 21.9823 57° Northeast  Level Estimated
Mon 08:26:00 AM 59.4521 22.1637 57° Northeast  Level Estimated
Mon 08:27:00 AM 59.5108 22.3432 57° Northeast  Level Estimated
Mon 08:28:00 AM 59.5692 22.5234 57° Northeast  Level Estimated
Mon 08:29:00 AM 59.6274 22.7043 57° Northeast  Level Estimated
Mon 08:30:00 AM 59.6853 22.8857 58° Northeast  Level Estimated
Mon 08:31:00 AM 59.7430 23.0678 58° Northeast  Level Estimated
Mon 08:32:00 AM 59.8004 23.2505 58° Northeast  Level Estimated
Mon 08:33:00 AM 59.8576 23.4338 58° Northeast  Level Estimated
Mon 08:34:00 AM 59.9145 23.6178 58° Northeast  Level Estimated
Mon 08:35:00 AM 59.9711 23.8024 58° Northeast  Level Estimated
Mon 08:36:00 AM 60.0275 23.9876 59° Northeast  Level Estimated
Mon 08:37:00 AM 60.0836 24.1735 59° Northeast  Level Estimated
Mon 08:38:00 AM 60.1395 24.3599 59° Northeast  Level Estimated
Mon 08:39:00 AM 60.1951 24.5471 59° Northeast  Level Estimated
Mon 08:40:00 AM 60.2505 24.7348 59° Northeast  Level Estimated
Mon 08:41:00 AM 60.3087 24.9340 59° Northeast  Level Estimated
Mon 08:42:00 AM 60.3172 24.9633 60° Northeast  Level Estimated
Mon 08:43:00 AM 60.3172 24.9633 North  Level Estimated
Mon 08:44:00 AM 60.3172 24.9633 North  Level Estimated
Mon 08:45:00 AM 60.3172 24.9633 North  Level Estimated
Mon 08:46:00 AM 60.3172 24.9633 North  Level Estimated
Mon 08:47:00 AM 60.3172 24.9633 North  Level Estimated
Mon 08:48:00 AM 60.3172 24.9633 North  Level Estimated
Mon 08:49:00 AM 60.3172 24.9633 North  Level Estimated
Mon 08:50:00 AM 60.3172 24.9633 North  Level Estimated
Mon 08:51:00 AM 60.3172 24.9633 North  Level Estimated
Mon 08:52:00 AM 60.3172 24.9633 North  Level Estimated
Mon 08:53:00 AM 60.3172 24.9633 North  Level Estimated

Login

Don't have an account? Register now (free) for customized features, flight alerts, and more!